Latest METARs, TAFs and NOTAMs for EGSS


---------------------------------------------------------------------------
	(OBSERVATIONS)
EGSS 260020Z AUTO 05004KT 1600 BR OVC003 15/14 Q1020=
EGSS 252350Z AUTO 04004KT 2100 BR OVC004 15/14 Q1020=
EGSS 252320Z AUTO 03003KT 2600 BR BKN007 BKN011 15/14 Q1020=
EGSS 252250Z AUTO 07004KT 3500 BR OVC015 15/14 Q1020=
EGSS 252220Z AUTO 02003KT 3400 BR BKN017 14/14 Q1020=
EGSS 252150Z AUTO 01003KT 3600 HZ BKN021 15/14 Q1020=
---------------------------------------------------------------------------
	(FC)
Sorry, FC For EGSS Not Found
---------------------------------------------------------------------------
	(TERMINAL AREA FORECAST)
AMD EGSS 252305Z 2523/2624 VRB04KT 3000 BR SCT015
    TEMPO 2523/2609 BKN004
    PROB40 2600/2608 0200 FG BKN001
    BECMG 2606/2609 9999 NSW
    PROB30 TEMPO 2606/2609 +SHRA BKN014 BKN045CB
    PROB30 TEMPO 2622/2624 4000 +TSRA BKN014 BKN045CB=
---------------------------------------------------------------------------
	(NOTAMS)


EGSS A1523/18 B-RNAV STAR VIA ABBOT (NORTHEAST) CHART FOLLOWING
    RECALIBRATION OF BKY VOR, AMEND ABBOT WAYPOINT TO READ BKY
    VOR R085.1/D20.0 AND ABBOT HOLD TO 265 DEGREES INBOUND 085
    DEGREES OUTBOUND. AD 2-EGSS-7-12 CHART REFERS. 27 APR 06:41
    2018 UNTIL PERM. CREATED: 27 APR 06:42 2018

EGSS A1534/18 NEW 8.33 KHZ FREQUENCIES IN USE AT STANSTED AIRPORT.
    STANSTED TOWER (AIR) 123.805 MHZ STANSTED GROUND (GMC) 121.730
    MHZ STANSTED DELIVERY (GMP) 121.955 MHZ AUTOMATIC TERMINAL
    INFORMATION SERVICE (ATIS) 127.180 MHZ AIP AD 2-EGSS-2.18
    AND ALL CHARTS REFER. 27 APR 10:53 2018 UNTIL PERM. CREATED:
    27 APR 10:53 2018

EGSS A3556/17 NEW TAXIWAY INFRASTRUCTURE NORTHEAST OF TAXIWAY
    LINK DELTA, EXTENSION OF TAXIWAY HOTEL BETWEEN LINK DELTA
    AND NEW LINK ECHO FEEDING APRON ECHO. 26 OCT 11:44 2017 UNTIL
    PERM. CREATED: 26 OCT 11:46 2017

EGSS K0091/18 REPORT OF A CRANE IN THE THAMES VALLEY AVOIDANCE
    AREA WI 1NM RADIUS OF PSN 515451N 0001359E (ELSENHAM, ESSEX)
    MAX HEIGHT 170FT AGL/473FT AMSL. 18/05/029/LFTP. 17 MAY 00:01
    2018 UNTIL 12 JUL 23:59 2018. CREATED: 11 MAY 12:48 2018

---------------------------------------------------------------------------